sensor_id;sensor_type;location;lat;lon;timestamp;temperature;humidity
29353;DHT22;16344;50.364;8.944;2024-01-25T00:00:40;8.50;99.90
29353;DHT22;16344;50.364;8.944;2024-01-25T00:03:05;8.50;99.90
29353;DHT22;16344;50.364;8.944;2024-01-25T00:05:31;8.50;99.90
29353;DHT22;16344;50.364;8.944;2024-01-25T00:07:56;8.50;99.90
29353;DHT22;16344;50.364;8.944;2024-01-25T00:10:22;8.50;99.90
29353;DHT22;16344;50.364;8.944;2024-01-25T00:12:47;8.50;99.90
29353;DHT22;16344;50.364;8.944;2024-01-25T00:15:13;8.50;99.90
29353;DHT22;16344;50.364;8.944;2024-01-25T00:17:38;8.50;99.90
29353;DHT22;16344;50.364;8.944;2024-01-25T00:20:04;8.40;99.90
29353;DHT22;16344;50.364;8.944;2024-01-25T00:22:30;8.40;99.90
29353;DHT22;16344;50.364;8.944;2024-01-25T00:24:56;8.40;99.90
29353;DHT22;16344;50.364;8.944;2024-01-25T00:27:21;8.40;99.90
29353;DHT22;16344;50.364;8.944;2024-01-25T00:29:47;8.50;99.90
29353;DHT22;16344;50.364;8.944;2024-01-25T00:32:12;8.50;99.90
29353;DHT22;16344;50.364;8.944;2024-01-25T00:34:38;8.40;99.90
29353;DHT22;16344;50.364;8.944;2024-01-25T00:37:03;8.50;99.90
29353;DHT22;16344;50.364;8.944;2024-01-25T00:39:29;8.40;99.90
29353;DHT22;16344;50.364;8.944;2024-01-25T00:41:56;8.40;99.90
29353;DHT22;16344;50.364;8.944;2024-01-25T00:44:23;8.50;99.90
29353;DHT22;16344;50.364;8.944;2024-01-25T00:46:49;8.50;99.90
29353;DHT22;16344;50.364;8.944;2024-01-25T00:49:16;8.50;99.90
29353;DHT22;16344;50.364;8.944;2024-01-25T00:51:43;8.50;99.90
29353;DHT22;16344;50.364;8.944;2024-01-25T00:54:11;8.50;99.90
29353;DHT22;16344;50.364;8.944;2024-01-25T00:56:36;8.50;99.90
29353;DHT22;16344;50.364;8.944;2024-01-25T00:59:02;8.50;99.90
29353;DHT22;16344;50.364;8.944;2024-01-25T01:01:27;8.50;99.90
29353;DHT22;16344;50.364;8.944;2024-01-25T01:03:53;8.60;99.90
29353;DHT22;16344;50.364;8.944;2024-01-25T01:06:20;8.50;99.90
29353;DHT22;16344;50.364;8.944;2024-01-25T01:08:46;8.50;99.90
29353;DHT22;16344;50.364;8.944;2024-01-25T01:11:11;8.60;99.90
29353;DHT22;16344;50.364;8.944;2024-01-25T01:13:37;8.60;99.90
29353;DHT22;16344;50.364;8.944;2024-01-25T01:16:02;8.60;99.90
29353;DHT22;16344;50.364;8.944;2024-01-25T01:18:28;8.60;99.90
29353;DHT22;16344;50.364;8.944;2024-01-25T01:20:53;8.60;99.90
29353;DHT22;16344;50.364;8.944;2024-01-25T01:23:18;8.70;99.90
29353;DHT22;16344;50.364;8.944;2024-01-25T01:25:44;8.60;99.90
29353;DHT22;16344;50.364;8.944;2024-01-25T01:28:09;8.50;99.90
29353;DHT22;16344;50.364;8.944;2024-01-25T01:30:35;8.50;99.90
29353;DHT22;16344;50.364;8.944;2024-01-25T01:33:00;8.50;99.90
29353;DHT22;16344;50.364;8.944;2024-01-25T01:35:26;8.50;99.90
29353;DHT22;16344;50.364;8.944;2024-01-25T01:37:51;8.50;99.90
29353;DHT22;16344;50.364;8.944;2024-01-25T01:40:17;8.40;99.90
29353;DHT22;16344;50.364;8.944;2024-01-25T01:42:42;8.40;99.90
29353;DHT22;16344;50.364;8.944;2024-01-25T01:45:08;8.40;99.90
29353;DHT22;16344;50.364;8.944;2024-01-25T01:47:36;8.40;99.90
29353;DHT22;16344;50.364;8.944;2024-01-25T01:50:01;8.40;99.90
29353;DHT22;16344;50.364;8.944;2024-01-25T01:52:27;8.40;99.90
29353;DHT22;16344;50.364;8.944;2024-01-25T01:54:53;8.40;99.90
29353;DHT22;16344;50.364;8.944;2024-01-25T01:57:18;8.40;99.90
29353;DHT22;16344;50.364;8.944;2024-01-25T01:59:44;8.30;99.90
29353;DHT22;16344;50.364;8.944;2024-01-25T02:02:09;8.30;99.90
29353;DHT22;16344;50.364;8.944;2024-01-25T02:04:35;8.30;99.90
29353;DHT22;16344;50.364;8.944;2024-01-25T02:07:00;8.30;99.90
29353;DHT22;16344;50.364;8.944;2024-01-25T02:09:26;8.30;99.90
29353;DHT22;16344;50.364;8.944;2024-01-25T02:12:01;8.30;99.90
29353;DHT22;16344;50.364;8.944;2024-01-25T02:14:27;8.10;99.90
29353;DHT22;16344;50.364;8.944;2024-01-25T02:16:53;8.20;99.90
29353;DHT22;16344;50.364;8.944;2024-01-25T02:19:18;8.30;99.90
29353;DHT22;16344;50.364;8.944;2024-01-25T02:21:44;8.30;99.90
29353;DHT22;16344;50.364;8.944;2024-01-25T02:24:09;8.30;99.90
29353;DHT22;16344;50.364;8.944;2024-01-25T02:26:35;8.30;99.90
29353;DHT22;16344;50.364;8.944;2024-01-25T02:29:00;8.30;99.90
29353;DHT22;16344;50.364;8.944;2024-01-25T02:31:26;8.30;99.90
29353;DHT22;16344;50.364;8.944;2024-01-25T02:33:51;8.30;99.90
29353;DHT22;16344;50.364;8.944;2024-01-25T02:36:17;8.30;99.90
29353;DHT22;16344;50.364;8.944;2024-01-25T02:38:42;8.20;99.90
29353;DHT22;16344;50.364;8.944;2024-01-25T02:41:08;8.20;99.90
29353;DHT22;16344;50.364;8.944;2024-01-25T02:43:33;8.20;99.90
29353;DHT22;16344;50.364;8.944;2024-01-25T02:45:58;8.30;99.90
29353;DHT22;16344;50.364;8.944;2024-01-25T02:48:24;8.30;99.90
29353;DHT22;16344;50.364;8.944;2024-01-25T02:50:49;8.20;99.90
29353;DHT22;16344;50.364;8.944;2024-01-25T02:53:15;8.20;99.90
29353;DHT22;16344;50.364;8.944;2024-01-25T02:55:40;8.20;99.90
29353;DHT22;16344;50.364;8.944;2024-01-25T02:58:06;8.20;99.90
29353;DHT22;16344;50.364;8.944;2024-01-25T03:00:31;8.20;99.90
29353;DHT22;16344;50.364;8.944;2024-01-25T03:02:56;8.10;99.90
29353;DHT22;16344;50.364;8.944;2024-01-25T03:05:22;8.10;99.90
29353;DHT22;16344;50.364;8.944;2024-01-25T03:07:47;8.10;99.90
29353;DHT22;16344;50.364;8.944;2024-01-25T03:10:13;8.00;99.90
29353;DHT22;16344;50.364;8.944;2024-01-25T03:12:38;8.00;99.90
29353;DHT22;16344;50.364;8.944;2024-01-25T03:15:04;8.00;99.90
29353;DHT22;16344;50.364;8.944;2024-01-25T03:17:30;8.00;99.90
29353;DHT22;16344;50.364;8.944;2024-01-25T03:19:55;7.90;99.90
29353;DHT22;16344;50.364;8.944;2024-01-25T03:22:20;7.90;99.90
29353;DHT22;16344;50.364;8.944;2024-01-25T03:24:47;7.90;99.90
29353;DHT22;16344;50.364;8.944;2024-01-25T03:27:13;7.80;99.90
29353;DHT22;16344;50.364;8.944;2024-01-25T03:29:43;7.80;99.90
29353;DHT22;16344;50.364;8.944;2024-01-25T03:32:09;7.90;99.90
29353;DHT22;16344;50.364;8.944;2024-01-25T03:34:34;7.80;99.90
29353;DHT22;16344;50.364;8.944;2024-01-25T03:37:00;7.80;99.90
29353;DHT22;16344;50.364;8.944;2024-01-25T03:39:25;7.80;99.90
29353;DHT22;16344;50.364;8.944;2024-01-25T03:41:51;7.90;99.90
29353;DHT22;16344;50.364;8.944;2024-01-25T03:44:16;7.90;99.90
29353;DHT22;16344;50.364;8.944;2024-01-25T03:46:42;7.90;99.90
29353;DHT22;16344;50.364;8.944;2024-01-25T03:49:07;7.80;99.90
29353;DHT22;16344;50.364;8.944;2024-01-25T03:51:32;7.80;99.90
29353;DHT22;16344;50.364;8.944;2024-01-25T03:53:58;7.70;99.90
29353;DHT22;16344;50.364;8.944;2024-01-25T03:56:23;7.70;99.90
29353;DHT22;16344;50.364;8.944;2024-01-25T03:58:49;7.70;99.90
29353;DHT22;16344;50.364;8.944;2024-01-25T04:01:15;7.70;99.90
29353;DHT22;16344;50.364;8.944;2024-01-25T04:03:40;7.70;99.90
29353;DHT22;16344;50.364;8.944;2024-01-25T04:06:06;7.70;99.90
29353;DHT22;16344;50.364;8.944;2024-01-25T04:08:32;7.70;99.90
29353;DHT22;16344;50.364;8.944;2024-01-25T04:10:57;7.70;99.90
29353;DHT22;16344;50.364;8.944;2024-01-25T04:13:22;7.70;99.90
29353;DHT22;16344;50.364;8.944;2024-01-25T04:15:48;7.60;99.90
29353;DHT22;16344;50.364;8.944;2024-01-25T04:18:13;7.60;99.90
29353;DHT22;16344;50.364;8.944;2024-01-25T04:20:40;7.50;99.90
29353;DHT22;16344;50.364;8.944;2024-01-25T04:23:05;7.40;99.90
29353;DHT22;16344;50.364;8.944;2024-01-25T04:25:31;7.50;99.90
29353;DHT22;16344;50.364;8.944;2024-01-25T04:27:56;7.50;99.90
29353;DHT22;16344;50.364;8.944;2024-01-25T04:30:22;7.50;99.90
29353;DHT22;16344;50.364;8.944;2024-01-25T04:32:47;7.50;99.90
29353;DHT22;16344;50.364;8.944;2024-01-25T04:35:13;7.60;99.90
29353;DHT22;16344;50.364;8.944;2024-01-25T04:37:38;7.60;99.90
29353;DHT22;16344;50.364;8.944;2024-01-25T04:40:04;7.50;99.90
29353;DHT22;16344;50.364;8.944;2024-01-25T04:42:30;7.50;99.90
29353;DHT22;16344;50.364;8.944;2024-01-25T04:44:55;7.50;99.90
29353;DHT22;16344;50.364;8.944;2024-01-25T04:47:21;7.50;99.90
29353;DHT22;16344;50.364;8.944;2024-01-25T04:49:47;7.50;99.90
29353;DHT22;16344;50.364;8.944;2024-01-25T04:52:12;7.50;99.90
29353;DHT22;16344;50.364;8.944;2024-01-25T04:54:37;7.40;99.90
29353;DHT22;16344;50.364;8.944;2024-01-25T04:57:03;7.40;99.90
29353;DHT22;16344;50.364;8.944;2024-01-25T04:59:34;7.50;99.90
29353;DHT22;16344;50.364;8.944;2024-01-25T05:02:00;7.50;99.90
29353;DHT22;16344;50.364;8.944;2024-01-25T05:04:25;7.50;99.90
29353;DHT22;16344;50.364;8.944;2024-01-25T05:06:51;7.60;99.90
29353;DHT22;16344;50.364;8.944;2024-01-25T05:09:16;7.50;99.90
29353;DHT22;16344;50.364;8.944;2024-01-25T05:11:42;7.50;99.90
29353;DHT22;16344;50.364;8.944;2024-01-25T05:14:07;7.50;99.90
29353;DHT22;16344;50.364;8.944;2024-01-25T05:16:33;7.50;99.90
29353;DHT22;16344;50.364;8.944;2024-01-25T05:18:58;7.40;99.90
29353;DHT22;16344;50.364;8.944;2024-01-25T05:21:24;7.40;99.90
29353;DHT22;16344;50.364;8.944;2024-01-25T05:23:49;7.50;99.90
29353;DHT22;16344;50.364;8.944;2024-01-25T05:26:15;7.50;99.90
29353;DHT22;16344;50.364;8.944;2024-01-25T05:28:40;7.50;99.90
29353;DHT22;16344;50.364;8.944;2024-01-25T05:31:06;7.50;99.90
29353;DHT22;16344;50.364;8.944;2024-01-25T05:33:38;7.50;99.90
29353;DHT22;16344;50.364;8.944;2024-01-25T05:36:03;7.50;99.90
29353;DHT22;16344;50.364;8.944;2024-01-25T05:38:29;7.50;99.90
29353;DHT22;16344;50.364;8.944;2024-01-25T05:40:54;7.40;99.90
29353;DHT22;16344;50.364;8.944;2024-01-25T05:43:20;7.30;99.90
29353;DHT22;16344;50.364;8.944;2024-01-25T05:45:45;7.20;99.90
29353;DHT22;16344;50.364;8.944;2024-01-25T05:48:10;7.20;99.90
29353;DHT22;16344;50.364;8.944;2024-01-25T05:50:36;7.20;99.90
29353;DHT22;16344;50.364;8.944;2024-01-25T05:53:01;7.10;99.90
29353;DHT22;16344;50.364;8.944;2024-01-25T05:55:27;7.10;99.90
29353;DHT22;16344;50.364;8.944;2024-01-25T05:57:52;7.10;99.90
29353;DHT22;16344;50.364;8.944;2024-01-25T06:00:18;7.10;99.90
29353;DHT22;16344;50.364;8.944;2024-01-25T06:02:44;7.10;99.90
29353;DHT22;16344;50.364;8.944;2024-01-25T06:05:10;7.00;99.90
29353;DHT22;16344;50.364;8.944;2024-01-25T06:07:35;7.10;99.90
29353;DHT22;16344;50.364;8.944;2024-01-25T06:10:01;7.10;99.90
29353;DHT22;16344;50.364;8.944;2024-01-25T06:12:26;7.00;99.90
29353;DHT22;16344;50.364;8.944;2024-01-25T06:14:52;7.00;99.90
29353;DHT22;16344;50.364;8.944;2024-01-25T06:17:17;7.00;99.90
29353;DHT22;16344;50.364;8.944;2024-01-25T06:19:43;7.00;99.90
29353;DHT22;16344;50.364;8.944;2024-01-25T06:22:08;6.90;99.90
29353;DHT22;16344;50.364;8.944;2024-01-25T06:24:34;6.90;99.90
29353;DHT22;16344;50.364;8.944;2024-01-25T06:26:59;6.90;99.90
29353;DHT22;16344;50.364;8.944;2024-01-25T06:29:24;6.90;99.90
29353;DHT22;16344;50.364;8.944;2024-01-25T06:31:50;6.90;99.90
29353;DHT22;16344;50.364;8.944;2024-01-25T06:34:16;6.80;99.90
29353;DHT22;16344;50.364;8.944;2024-01-25T06:36:41;6.90;1.00
29353;DHT22;16344;50.364;8.944;2024-01-25T06:39:07;6.90;1.00
29353;DHT22;16344;50.364;8.944;2024-01-25T06:41:32;6.90;1.00
29353;DHT22;16344;50.364;8.944;2024-01-25T06:43:58;6.80;1.00
29353;DHT22;16344;50.364;8.944;2024-01-25T06:46:24;6.90;1.00
29353;DHT22;16344;50.364;8.944;2024-01-25T06:48:50;6.70;1.00
29353;DHT22;16344;50.364;8.944;2024-01-25T06:51:15;6.80;1.00
29353;DHT22;16344;50.364;8.944;2024-01-25T06:53:41;6.80;1.00
29353;DHT22;16344;50.364;8.944;2024-01-25T06:56:06;6.80;1.00
29353;DHT22;16344;50.364;8.944;2024-01-25T06:58:32;6.80;1.00
29353;DHT22;16344;50.364;8.944;2024-01-25T07:00:57;6.80;1.00
29353;DHT22;16344;50.364;8.944;2024-01-25T07:03:23;6.80;1.00
29353;DHT22;16344;50.364;8.944;2024-01-25T07:05:48;6.80;1.00
29353;DHT22;16344;50.364;8.944;2024-01-25T07:08:14;6.80;99.90
29353;DHT22;16344;50.364;8.944;2024-01-25T07:10:40;6.80;99.90
29353;DHT22;16344;50.364;8.944;2024-01-25T07:13:05;6.80;99.90
29353;DHT22;16344;50.364;8.944;2024-01-25T07:15:31;6.70;99.90
29353;DHT22;16344;50.364;8.944;2024-01-25T07:17:57;6.60;99.90
29353;DHT22;16344;50.364;8.944;2024-01-25T07:20:23;6.60;1.00
29353;DHT22;16344;50.364;8.944;2024-01-25T07:22:48;6.60;1.00
29353;DHT22;16344;50.364;8.944;2024-01-25T07:25:14;6.50;1.00
29353;DHT22;16344;50.364;8.944;2024-01-25T07:27:39;6.60;1.00
29353;DHT22;16344;50.364;8.944;2024-01-25T07:30:05;6.60;1.00
29353;DHT22;16344;50.364;8.944;2024-01-25T07:32:30;6.70;1.00
29353;DHT22;16344;50.364;8.944;2024-01-25T07:34:57;6.70;1.00
29353;DHT22;16344;50.364;8.944;2024-01-25T07:37:23;6.90;1.00
29353;DHT22;16344;50.364;8.944;2024-01-25T07:39:48;6.90;1.00
29353;DHT22;16344;50.364;8.944;2024-01-25T07:42:14;6.90;99.90
29353;DHT22;16344;50.364;8.944;2024-01-25T07:44:39;7.00;99.90
29353;DHT22;16344;50.364;8.944;2024-01-25T07:47:04;7.00;99.90
29353;DHT22;16344;50.364;8.944;2024-01-25T07:49:30;7.10;99.90
29353;DHT22;16344;50.364;8.944;2024-01-25T07:51:55;7.20;99.90
29353;DHT22;16344;50.364;8.944;2024-01-25T07:54:24;7.20;99.90
29353;DHT22;16344;50.364;8.944;2024-01-25T07:56:49;7.40;99.90
29353;DHT22;16344;50.364;8.944;2024-01-25T07:59:15;7.50;99.90
29353;DHT22;16344;50.364;8.944;2024-01-25T08:01:40;7.60;99.90
29353;DHT22;16344;50.364;8.944;2024-01-25T08:04:05;7.70;99.90
29353;DHT22;16344;50.364;8.944;2024-01-25T08:06:31;7.80;99.90
29353;DHT22;16344;50.364;8.944;2024-01-25T08:08:57;7.90;99.90
29353;DHT22;16344;50.364;8.944;2024-01-25T08:11:22;8.00;99.90
29353;DHT22;16344;50.364;8.944;2024-01-25T08:13:48;8.20;99.90
29353;DHT22;16344;50.364;8.944;2024-01-25T08:16:14;8.30;99.90
29353;DHT22;16344;50.364;8.944;2024-01-25T08:18:44;8.40;99.90
29353;DHT22;16344;50.364;8.944;2024-01-25T08:21:10;8.50;99.90
29353;DHT22;16344;50.364;8.944;2024-01-25T08:23:36;8.50;99.90
29353;DHT22;16344;50.364;8.944;2024-01-25T08:26:01;8.60;99.90
29353;DHT22;16344;50.364;8.944;2024-01-25T08:28:27;8.60;99.90
29353;DHT22;16344;50.364;8.944;2024-01-25T08:30:52;8.70;99.90
29353;DHT22;16344;50.364;8.944;2024-01-25T08:33:18;8.80;99.90
29353;DHT22;16344;50.364;8.944;2024-01-25T08:35:43;8.90;99.90
29353;DHT22;16344;50.364;8.944;2024-01-25T08:38:09;9.00;99.90
29353;DHT22;16344;50.364;8.944;2024-01-25T08:40:34;8.90;99.90
29353;DHT22;16344;50.364;8.944;2024-01-25T08:43:00;9.00;99.90
29353;DHT22;16344;50.364;8.944;2024-01-25T08:45:25;9.10;99.90
29353;DHT22;16344;50.364;8.944;2024-01-25T08:47:51;9.10;99.90
29353;DHT22;16344;50.364;8.944;2024-01-25T08:50:17;9.10;99.90
29353;DHT22;16344;50.364;8.944;2024-01-25T08:52:43;9.10;99.90
29353;DHT22;16344;50.364;8.944;2024-01-25T08:55:08;9.10;99.90
29353;DHT22;16344;50.364;8.944;2024-01-25T08:57:37;9.10;99.90
29353;DHT22;16344;50.364;8.944;2024-01-25T09:00:03;9.20;99.90
29353;DHT22;16344;50.364;8.944;2024-01-25T09:02:34;9.00;99.90
29353;DHT22;16344;50.364;8.944;2024-01-25T09:04:59;9.00;99.90
29353;DHT22;16344;50.364;8.944;2024-01-25T09:07:25;8.90;99.90
29353;DHT22;16344;50.364;8.944;2024-01-25T09:09:50;8.80;99.90
29353;DHT22;16344;50.364;8.944;2024-01-25T09:12:16;8.70;99.90
29353;DHT22;16344;50.364;8.944;2024-01-25T09:14:41;8.70;99.90
29353;DHT22;16344;50.364;8.944;2024-01-25T09:17:08;8.70;99.90
29353;DHT22;16344;50.364;8.944;2024-01-25T09:19:33;8.70;99.90
29353;DHT22;16344;50.364;8.944;2024-01-25T09:21:59;8.60;99.90
29353;DHT22;16344;50.364;8.944;2024-01-25T09:24:29;8.60;99.90
29353;DHT22;16344;50.364;8.944;2024-01-25T09:26:55;8.70;99.90
29353;DHT22;16344;50.364;8.944;2024-01-25T09:29:21;8.60;99.90
29353;DHT22;16344;50.364;8.944;2024-01-25T09:31:46;8.70;99.90
29353;DHT22;16344;50.364;8.944;2024-01-25T09:34:12;8.80;99.90
29353;DHT22;16344;50.364;8.944;2024-01-25T09:36:37;9.00;99.90
29353;DHT22;16344;50.364;8.944;2024-01-25T09:39:02;9.00;99.90
29353;DHT22;16344;50.364;8.944;2024-01-25T09:41:29;9.00;99.90
29353;DHT22;16344;50.364;8.944;2024-01-25T09:43:55;9.10;99.90
29353;DHT22;16344;50.364;8.944;2024-01-25T09:46:20;9.20;99.90
29353;DHT22;16344;50.364;8.944;2024-01-25T09:48:46;9.20;99.90
29353;DHT22;16344;50.364;8.944;2024-01-25T09:51:13;9.30;99.90
29353;DHT22;16344;50.364;8.944;2024-01-25T09:53:39;9.30;99.90
29353;DHT22;16344;50.364;8.944;2024-01-25T09:56:07;9.20;99.90
29353;DHT22;16344;50.364;8.944;2024-01-25T10:01:01;9.20;99.90
29353;DHT22;16344;50.364;8.944;2024-01-25T10:03:27;9.30;99.90
29353;DHT22;16344;50.364;8.944;2024-01-25T10:05:52;9.40;99.90
29353;DHT22;16344;50.364;8.944;2024-01-25T10:08:18;9.30;99.90
29353;DHT22;16344;50.364;8.944;2024-01-25T10:10:46;9.30;99.90
29353;DHT22;16344;50.364;8.944;2024-01-25T10:13:12;9.30;99.90
29353;DHT22;16344;50.364;8.944;2024-01-25T10:15:38;9.30;99.90
29353;DHT22;16344;50.364;8.944;2024-01-25T10:18:03;9.30;99.90
29353;DHT22;16344;50.364;8.944;2024-01-25T10:20:30;9.40;99.90
29353;DHT22;16344;50.364;8.944;2024-01-25T10:22:56;9.40;99.90
29353;DHT22;16344;50.364;8.944;2024-01-25T10:25:21;9.40;99.90
29353;DHT22;16344;50.364;8.944;2024-01-25T10:27:47;9.50;99.90
29353;DHT22;16344;50.364;8.944;2024-01-25T10:30:12;9.40;99.90
29353;DHT22;16344;50.364;8.944;2024-01-25T10:32:39;9.50;99.90
29353;DHT22;16344;50.364;8.944;2024-01-25T10:35:05;9.50;99.90
29353;DHT22;16344;50.364;8.944;2024-01-25T10:37:32;9.60;99.90
29353;DHT22;16344;50.364;8.944;2024-01-25T10:39:58;9.60;99.90
29353;DHT22;16344;50.364;8.944;2024-01-25T10:42:24;9.60;99.90
29353;DHT22;16344;50.364;8.944;2024-01-25T10:44:49;9.60;99.90
29353;DHT22;16344;50.364;8.944;2024-01-25T10:47:14;9.70;99.90
29353;DHT22;16344;50.364;8.944;2024-01-25T10:49:40;9.70;99.90
29353;DHT22;16344;50.364;8.944;2024-01-25T10:52:06;9.70;99.90
29353;DHT22;16344;50.364;8.944;2024-01-25T10:54:32;9.80;99.90
29353;DHT22;16344;50.364;8.944;2024-01-25T10:56:58;9.80;99.90
29353;DHT22;16344;50.364;8.944;2024-01-25T10:59:23;9.90;99.90
29353;DHT22;16344;50.364;8.944;2024-01-25T11:01:50;9.90;99.90
29353;DHT22;16344;50.364;8.944;2024-01-25T11:04:16;9.90;99.00
29353;DHT22;16344;50.364;8.944;2024-01-25T11:06:43;9.90;99.90
29353;DHT22;16344;50.364;8.944;2024-01-25T11:09:08;9.80;99.90
29353;DHT22;16344;50.364;8.944;2024-01-25T11:11:35;9.90;99.90
29353;DHT22;16344;50.364;8.944;2024-01-25T11:14:01;9.80;87.10
29353;DHT22;16344;50.364;8.944;2024-01-25T11:16:30;9.80;49.80
29353;DHT22;16344;50.364;8.944;2024-01-25T11:18:57;9.70;53.50
29353;DHT22;16344;50.364;8.944;2024-01-25T11:21:47;9.60;50.90
29353;DHT22;16344;50.364;8.944;2024-01-25T11:24:13;9.50;47.70
29353;DHT22;16344;50.364;8.944;2024-01-25T11:26:39;9.50;43.60
29353;DHT22;16344;50.364;8.944;2024-01-25T11:29:04;9.60;55.90
29353;DHT22;16344;50.364;8.944;2024-01-25T11:31:30;9.60;53.90
29353;DHT22;16344;50.364;8.944;2024-01-25T11:33:59;9.60;32.50
29353;DHT22;16344;50.364;8.944;2024-01-25T11:36:25;9.70;35.20
29353;DHT22;16344;50.364;8.944;2024-01-25T11:38:50;9.60;24.10
29353;DHT22;16344;50.364;8.944;2024-01-25T11:41:16;9.60;41.10
29353;DHT22;16344;50.364;8.944;2024-01-25T11:43:41;9.70;45.60
29353;DHT22;16344;50.364;8.944;2024-01-25T11:46:07;9.60;27.60
29353;DHT22;16344;50.364;8.944;2024-01-25T11:48:33;9.60;26.30
29353;DHT22;16344;50.364;8.944;2024-01-25T11:50:59;9.70;38.00
29353;DHT22;16344;50.364;8.944;2024-01-25T11:53:25;9.70;31.30
29353;DHT22;16344;50.364;8.944;2024-01-25T11:55:50;9.60;17.50
29353;DHT22;16344;50.364;8.944;2024-01-25T11:58:16;9.60;23.20
29353;DHT22;16344;50.364;8.944;2024-01-25T12:00:41;9.60;20.30
29353;DHT22;16344;50.364;8.944;2024-01-25T12:03:07;9.50;30.80
29353;DHT22;16344;50.364;8.944;2024-01-25T12:05:34;9.50;35.60
29353;DHT22;16344;50.364;8.944;2024-01-25T12:07:59;9.40;41.30
29353;DHT22;16344;50.364;8.944;2024-01-25T12:10:25;9.50;61.10
29353;DHT22;16344;50.364;8.944;2024-01-25T12:12:51;9.50;51.20
29353;DHT22;16344;50.364;8.944;2024-01-25T12:15:16;9.60;42.40
29353;DHT22;16344;50.364;8.944;2024-01-25T12:17:42;9.70;32.60
29353;DHT22;16344;50.364;8.944;2024-01-25T12:20:08;9.60;29.60
29353;DHT22;16344;50.364;8.944;2024-01-25T12:22:36;9.70;32.40
29353;DHT22;16344;50.364;8.944;2024-01-25T12:25:03;9.70;24.60
29353;DHT22;16344;50.364;8.944;2024-01-25T12:27:31;9.70;23.40
29353;DHT22;16344;50.364;8.944;2024-01-25T12:29:57;9.80;22.70
29353;DHT22;16344;50.364;8.944;2024-01-25T12:32:23;9.70;21.60
29353;DHT22;16344;50.364;8.944;2024-01-25T12:34:58;9.70;25.00
29353;DHT22;16344;50.364;8.944;2024-01-25T12:37:25;9.80;16.90
29353;DHT22;16344;50.364;8.944;2024-01-25T12:39:51;9.80;24.10
29353;DHT22;16344;50.364;8.944;2024-01-25T12:42:17;9.80;36.50
29353;DHT22;16344;50.364;8.944;2024-01-25T12:44:43;9.80;41.10
29353;DHT22;16344;50.364;8.944;2024-01-25T12:47:08;9.80;41.90
29353;DHT22;16344;50.364;8.944;2024-01-25T12:49:34;9.90;41.60
29353;DHT22;16344;50.364;8.944;2024-01-25T12:51:59;9.80;44.50
29353;DHT22;16344;50.364;8.944;2024-01-25T12:54:25;9.80;49.00
29353;DHT22;16344;50.364;8.944;2024-01-25T12:56:51;9.80;39.70
29353;DHT22;16344;50.364;8.944;2024-01-25T12:59:16;9.70;49.20
29353;DHT22;16344;50.364;8.944;2024-01-25T13:01:41;9.70;47.80
29353;DHT22;16344;50.364;8.944;2024-01-25T13:04:07;9.70;58.80
29353;DHT22;16344;50.364;8.944;2024-01-25T13:06:33;9.80;60.60
29353;DHT22;16344;50.364;8.944;2024-01-25T13:08:58;9.70;76.00
29353;DHT22;16344;50.364;8.944;2024-01-25T13:11:23;9.60;65.80
29353;DHT22;16344;50.364;8.944;2024-01-25T13:13:49;9.70;38.50
29353;DHT22;16344;50.364;8.944;2024-01-25T13:16:16;9.70;41.50
29353;DHT22;16344;50.364;8.944;2024-01-25T13:18:42;9.80;37.90
29353;DHT22;16344;50.364;8.944;2024-01-25T13:21:07;9.80;40.50
29353;DHT22;16344;50.364;8.944;2024-01-25T13:23:33;9.80;69.30
29353;DHT22;16344;50.364;8.944;2024-01-25T13:25:58;9.70;84.80
29353;DHT22;16344;50.364;8.944;2024-01-25T13:28:23;9.70;99.90
29353;DHT22;16344;50.364;8.944;2024-01-25T13:30:49;9.60;99.90
29353;DHT22;16344;50.364;8.944;2024-01-25T13:33:14;9.60;99.90
29353;DHT22;16344;50.364;8.944;2024-01-25T13:35:40;9.60;93.60
29353;DHT22;16344;50.364;8.944;2024-01-25T13:38:05;9.70;93.70
29353;DHT22;16344;50.364;8.944;2024-01-25T13:40:30;9.80;99.90
29353;DHT22;16344;50.364;8.944;2024-01-25T13:42:56;9.80;99.90
29353;DHT22;16344;50.364;8.944;2024-01-25T13:45:22;9.80;99.90
29353;DHT22;16344;50.364;8.944;2024-01-25T13:47:47;9.80;99.90
29353;DHT22;16344;50.364;8.944;2024-01-25T13:50:12;9.80;77.50
29353;DHT22;16344;50.364;8.944;2024-01-25T13:52:38;9.80;58.80
29353;DHT22;16344;50.364;8.944;2024-01-25T13:55:03;9.90;67.10
29353;DHT22;16344;50.364;8.944;2024-01-25T13:57:29;9.90;77.30
29353;DHT22;16344;50.364;8.944;2024-01-25T13:59:54;9.80;54.70
29353;DHT22;16344;50.364;8.944;2024-01-25T14:02:20;9.90;57.00
29353;DHT22;16344;50.364;8.944;2024-01-25T14:04:45;9.90;54.40
29353;DHT22;16344;50.364;8.944;2024-01-25T14:07:13;9.90;52.20
29353;DHT22;16344;50.364;8.944;2024-01-25T14:09:38;10.00;53.40
29353;DHT22;16344;50.364;8.944;2024-01-25T14:12:06;10.00;53.60
29353;DHT22;16344;50.364;8.944;2024-01-25T14:14:31;9.90;49.20
29353;DHT22;16344;50.364;8.944;2024-01-25T14:16:57;9.90;35.40
29353;DHT22;16344;50.364;8.944;2024-01-25T14:19:22;9.90;43.90
29353;DHT22;16344;50.364;8.944;2024-01-25T14:21:47;9.80;52.30
29353;DHT22;16344;50.364;8.944;2024-01-25T14:24:14;9.80;45.00
29353;DHT22;16344;50.364;8.944;2024-01-25T14:26:39;9.80;39.80
29353;DHT22;16344;50.364;8.944;2024-01-25T14:29:05;9.80;38.70
29353;DHT22;16344;50.364;8.944;2024-01-25T14:31:30;9.90;38.90
29353;DHT22;16344;50.364;8.944;2024-01-25T14:33:56;9.80;39.50
29353;DHT22;16344;50.364;8.944;2024-01-25T14:36:21;9.90;41.90
29353;DHT22;16344;50.364;8.944;2024-01-25T14:38:46;9.80;48.30
29353;DHT22;16344;50.364;8.944;2024-01-25T14:41:12;9.80;59.30
29353;DHT22;16344;50.364;8.944;2024-01-25T14:43:38;9.80;63.80
29353;DHT22;16344;50.364;8.944;2024-01-25T14:46:04;9.80;77.00
29353;DHT22;16344;50.364;8.944;2024-01-25T14:48:30;9.70;88.10
29353;DHT22;16344;50.364;8.944;2024-01-25T14:50:55;9.70;99.90
29353;DHT22;16344;50.364;8.944;2024-01-25T14:53:21;9.70;95.50
29353;DHT22;16344;50.364;8.944;2024-01-25T14:55:46;9.70;98.60
29353;DHT22;16344;50.364;8.944;2024-01-25T14:58:12;9.70;95.70
29353;DHT22;16344;50.364;8.944;2024-01-25T15:00:40;9.70;96.50
29353;DHT22;16344;50.364;8.944;2024-01-25T15:03:05;9.70;95.70
29353;DHT22;16344;50.364;8.944;2024-01-25T15:05:31;9.80;85.10
29353;DHT22;16344;50.364;8.944;2024-01-25T15:07:56;9.80;87.00
29353;DHT22;16344;50.364;8.944;2024-01-25T15:10:21;9.80;91.10
29353;DHT22;16344;50.364;8.944;2024-01-25T15:12:47;9.70;90.60
29353;DHT22;16344;50.364;8.944;2024-01-25T15:15:13;9.70;92.50
29353;DHT22;16344;50.364;8.944;2024-01-25T15:17:39;9.70;76.00
29353;DHT22;16344;50.364;8.944;2024-01-25T15:20:04;9.70;69.70
29353;DHT22;16344;50.364;8.944;2024-01-25T15:22:31;9.60;62.00
29353;DHT22;16344;50.364;8.944;2024-01-25T15:24:56;9.60;65.50
29353;DHT22;16344;50.364;8.944;2024-01-25T15:27:22;9.60;72.90
29353;DHT22;16344;50.364;8.944;2024-01-25T15:29:47;9.60;84.00
29353;DHT22;16344;50.364;8.944;2024-01-25T15:32:14;9.50;92.20
29353;DHT22;16344;50.364;8.944;2024-01-25T15:34:39;9.50;70.00
29353;DHT22;16344;50.364;8.944;2024-01-25T15:37:05;9.40;84.90
29353;DHT22;16344;50.364;8.944;2024-01-25T15:39:31;9.40;94.10